Terminal Aerodrome Forecast
Issued by NWS Sioux Falls, SD

Home | Current Version | Previous Version | Text Only | Print | Product List | Glossary Off
Versions: 1 2 3 4 5 6 7 8 9 10 11 12 13 14 15 16 17

000
FTUS43 KFSD 051136
TAFHON
TAF
KHON 051136Z 0512/0612 14014G19KT P6SM SCT120
     FM052000 17014G20KT P6SM SCT050 SCT080
     FM060100 15010KT P6SM BKN045
     FM060300 03010KT 4SM TSRA SCT020CB OVC040
     FM060600 36013KT P6SM -SHRA OVC015=

USA.gov is the U.S. government's official web portal to all federal, state and local government web resources and services.